Terminal Aerodrome Forecast
Issued by NWS Sterling, VA

Current Version | Previous Version | Graphics & Text | Print | Product List | Glossary On
Versions: 1 2 3 4 5 6 7 8 9 10 11 12 13 14 15 16 17 18 19 20 21 22 23
429
FTUS41 KLWX 242320
TAFDCA
TAF
KDCA 242320Z 2500/2524 16007KT P6SM SCT200
     FM250600 17006KT P6SM BKN030
     FM250800 17006KT P6SM BKN200
     FM251500 18010KT P6SM BKN200
     FM251800 19013G20KT 4SM -SHRA OVC030
     FM252000 26016G24KT 4SM -SHRA OVC040
     FM252100 29017G26KT P6SM -SHRA OVC045=

USA.gov is the U.S. government's official web portal to all federal, state and local government web resources and services.